sensor_id;sensor_type;location;lat;lon;timestamp;temperature;humidity
20102;DHT22;10210;52.284;9.892;2022-07-04T00:00:49;24.30;90.50
20102;DHT22;10210;52.284;9.892;2022-07-04T00:03:15;24.20;90.50
20102;DHT22;10210;52.284;9.892;2022-07-04T00:05:41;24.10;90.60
20102;DHT22;10210;52.284;9.892;2022-07-04T00:08:06;24.10;90.70
20102;DHT22;10210;52.284;9.892;2022-07-04T00:10:32;24.00;90.70
20102;DHT22;10210;52.284;9.892;2022-07-04T00:12:58;24.00;90.70
20102;DHT22;10210;52.284;9.892;2022-07-04T00:15:24;23.90;90.80
20102;DHT22;10210;52.284;9.892;2022-07-04T00:17:50;23.90;90.80
20102;DHT22;10210;52.284;9.892;2022-07-04T00:20:16;23.80;90.90
20102;DHT22;10210;52.284;9.892;2022-07-04T00:22:43;23.80;90.90
20102;DHT22;10210;52.284;9.892;2022-07-04T00:25:10;23.80;91.00
20102;DHT22;10210;52.284;9.892;2022-07-04T00:27:35;23.70;90.90
20102;DHT22;10210;52.284;9.892;2022-07-04T00:30:02;23.60;90.90
20102;DHT22;10210;52.284;9.892;2022-07-04T00:32:28;23.60;91.10
20102;DHT22;10210;52.284;9.892;2022-07-04T00:34:54;23.50;91.20
20102;DHT22;10210;52.284;9.892;2022-07-04T00:37:20;23.40;91.20
20102;DHT22;10210;52.284;9.892;2022-07-04T00:39:45;23.30;91.30
20102;DHT22;10210;52.284;9.892;2022-07-04T00:42:11;23.30;91.50
20102;DHT22;10210;52.284;9.892;2022-07-04T00:44:37;23.20;91.60
20102;DHT22;10210;52.284;9.892;2022-07-04T00:47:03;23.20;91.70
20102;DHT22;10210;52.284;9.892;2022-07-04T00:49:30;23.10;91.80
20102;DHT22;10210;52.284;9.892;2022-07-04T00:51:56;23.10;91.90
20102;DHT22;10210;52.284;9.892;2022-07-04T00:54:25;23.00;91.90
20102;DHT22;10210;52.284;9.892;2022-07-04T00:56:54;23.00;92.20
20102;DHT22;10210;52.284;9.892;2022-07-04T00:59:21;22.90;92.20
20102;DHT22;10210;52.284;9.892;2022-07-04T01:01:48;22.90;92.30
20102;DHT22;10210;52.284;9.892;2022-07-04T01:04:15;22.90;92.30
20102;DHT22;10210;52.284;9.892;2022-07-04T01:06:43;22.80;92.40
20102;DHT22;10210;52.284;9.892;2022-07-04T01:09:10;22.80;92.60
20102;DHT22;10210;52.284;9.892;2022-07-04T01:11:36;22.80;92.60
20102;DHT22;10210;52.284;9.892;2022-07-04T01:14:02;22.80;92.80
20102;DHT22;10210;52.284;9.892;2022-07-04T01:16:28;22.80;92.70
20102;DHT22;10210;52.284;9.892;2022-07-04T01:18:55;22.80;92.90
20102;DHT22;10210;52.284;9.892;2022-07-04T01:21:21;22.70;93.00
20102;DHT22;10210;52.284;9.892;2022-07-04T01:23:47;22.70;93.10
20102;DHT22;10210;52.284;9.892;2022-07-04T01:26:12;22.70;93.20
20102;DHT22;10210;52.284;9.892;2022-07-04T01:28:39;22.70;93.20
20102;DHT22;10210;52.284;9.892;2022-07-04T01:31:05;22.60;93.20
20102;DHT22;10210;52.284;9.892;2022-07-04T01:33:31;22.60;93.20
20102;DHT22;10210;52.284;9.892;2022-07-04T01:35:58;22.60;93.40
20102;DHT22;10210;52.284;9.892;2022-07-04T01:38:24;22.60;93.40
20102;DHT22;10210;52.284;9.892;2022-07-04T01:40:50;22.60;93.50
20102;DHT22;10210;52.284;9.892;2022-07-04T01:43:16;22.50;93.60
20102;DHT22;10210;52.284;9.892;2022-07-04T01:45:43;22.40;93.60
20102;DHT22;10210;52.284;9.892;2022-07-04T01:48:11;22.40;93.70
20102;DHT22;10210;52.284;9.892;2022-07-04T01:50:38;22.30;93.80
20102;DHT22;10210;52.284;9.892;2022-07-04T01:53:05;22.30;93.90
20102;DHT22;10210;52.284;9.892;2022-07-04T01:55:31;22.20;93.90
20102;DHT22;10210;52.284;9.892;2022-07-04T01:57:58;22.20;94.10
20102;DHT22;10210;52.284;9.892;2022-07-04T02:00:25;22.10;94.20
20102;DHT22;10210;52.284;9.892;2022-07-04T02:03:09;22.10;94.30
20102;DHT22;10210;52.284;9.892;2022-07-04T02:05:36;22.00;94.30
20102;DHT22;10210;52.284;9.892;2022-07-04T02:08:06;22.00;94.40
20102;DHT22;10210;52.284;9.892;2022-07-04T02:10:33;21.90;94.50
20102;DHT22;10210;52.284;9.892;2022-07-04T02:12:58;21.90;94.70
20102;DHT22;10210;52.284;9.892;2022-07-04T02:15:38;21.80;94.70
20102;DHT22;10210;52.284;9.892;2022-07-04T02:18:08;21.80;95.00
20102;DHT22;10210;52.284;9.892;2022-07-04T02:20:36;21.80;94.90
20102;DHT22;10210;52.284;9.892;2022-07-04T02:23:04;21.70;95.00
20102;DHT22;10210;52.284;9.892;2022-07-04T02:25:30;21.70;95.00
20102;DHT22;10210;52.284;9.892;2022-07-04T02:27:56;21.70;95.10
20102;DHT22;10210;52.284;9.892;2022-07-04T02:30:23;21.60;95.10
20102;DHT22;10210;52.284;9.892;2022-07-04T02:32:49;21.60;95.20
20102;DHT22;10210;52.284;9.892;2022-07-04T02:35:15;21.60;95.30
20102;DHT22;10210;52.284;9.892;2022-07-04T02:37:42;21.60;95.40
20102;DHT22;10210;52.284;9.892;2022-07-04T02:40:08;21.50;95.50
20102;DHT22;10210;52.284;9.892;2022-07-04T02:42:35;21.50;95.60
20102;DHT22;10210;52.284;9.892;2022-07-04T02:45:02;21.50;95.90
20102;DHT22;10210;52.284;9.892;2022-07-04T02:47:29;21.40;96.00
20102;DHT22;10210;52.284;9.892;2022-07-04T02:49:55;21.40;96.10
20102;DHT22;10210;52.284;9.892;2022-07-04T02:52:20;21.40;96.20
20102;DHT22;10210;52.284;9.892;2022-07-04T02:54:46;21.40;96.20
20102;DHT22;10210;52.284;9.892;2022-07-04T02:57:14;21.50;96.30
20102;DHT22;10210;52.284;9.892;2022-07-04T02:59:40;21.40;96.40
20102;DHT22;10210;52.284;9.892;2022-07-04T03:02:06;21.50;96.50
20102;DHT22;10210;52.284;9.892;2022-07-04T03:04:31;21.50;96.60
20102;DHT22;10210;52.284;9.892;2022-07-04T03:06:57;21.50;96.60
20102;DHT22;10210;52.284;9.892;2022-07-04T03:09:23;21.50;96.70
20102;DHT22;10210;52.284;9.892;2022-07-04T03:11:52;21.50;96.70
20102;DHT22;10210;52.284;9.892;2022-07-04T03:14:17;21.50;96.80
20102;DHT22;10210;52.284;9.892;2022-07-04T03:16:43;21.40;96.90
20102;DHT22;10210;52.284;9.892;2022-07-04T03:19:08;21.50;97.00
20102;DHT22;10210;52.284;9.892;2022-07-04T03:21:34;21.40;97.00
20102;DHT22;10210;52.284;9.892;2022-07-04T03:24:00;21.40;97.20
20102;DHT22;10210;52.284;9.892;2022-07-04T03:26:30;21.40;97.20
20102;DHT22;10210;52.284;9.892;2022-07-04T03:28:58;21.40;97.60
20102;DHT22;10210;52.284;9.892;2022-07-04T03:31:24;21.40;97.50
20102;DHT22;10210;52.284;9.892;2022-07-04T03:33:52;21.40;97.60
20102;DHT22;10210;52.284;9.892;2022-07-04T03:36:20;21.40;97.70
20102;DHT22;10210;52.284;9.892;2022-07-04T03:38:46;21.30;98.20
20102;DHT22;10210;52.284;9.892;2022-07-04T03:41:13;21.40;98.00
20102;DHT22;10210;52.284;9.892;2022-07-04T03:43:39;21.30;98.00
20102;DHT22;10210;52.284;9.892;2022-07-04T03:46:05;21.30;98.20
20102;DHT22;10210;52.284;9.892;2022-07-04T03:48:30;21.30;98.30
20102;DHT22;10210;52.284;9.892;2022-07-04T03:50:56;21.30;98.20
20102;DHT22;10210;52.284;9.892;2022-07-04T03:53:22;21.30;98.10
20102;DHT22;10210;52.284;9.892;2022-07-04T03:55:48;21.30;98.00
20102;DHT22;10210;52.284;9.892;2022-07-04T03:58:14;21.30;98.10
20102;DHT22;10210;52.284;9.892;2022-07-04T04:00:39;21.20;98.10
20102;DHT22;10210;52.284;9.892;2022-07-04T04:03:08;21.20;98.30
20102;DHT22;10210;52.284;9.892;2022-07-04T04:05:53;21.20;98.30
20102;DHT22;10210;52.284;9.892;2022-07-04T04:08:19;21.10;98.20
20102;DHT22;10210;52.284;9.892;2022-07-04T04:10:45;21.10;98.40
20102;DHT22;10210;52.284;9.892;2022-07-04T04:13:10;21.10;98.50
20102;DHT22;10210;52.284;9.892;2022-07-04T04:15:36;21.10;98.80
20102;DHT22;10210;52.284;9.892;2022-07-04T04:18:02;21.10;99.00
20102;DHT22;10210;52.284;9.892;2022-07-04T04:20:27;21.00;99.10
20102;DHT22;10210;52.284;9.892;2022-07-04T04:22:53;21.00;99.30
20102;DHT22;10210;52.284;9.892;2022-07-04T04:25:19;21.00;99.50
20102;DHT22;10210;52.284;9.892;2022-07-04T04:27:44;21.00;99.60
20102;DHT22;10210;52.284;9.892;2022-07-04T04:30:10;21.00;99.50
20102;DHT22;10210;52.284;9.892;2022-07-04T04:32:36;21.00;99.70
20102;DHT22;10210;52.284;9.892;2022-07-04T04:35:02;21.00;99.90
20102;DHT22;10210;52.284;9.892;2022-07-04T04:37:28;21.00;99.90
20102;DHT22;10210;52.284;9.892;2022-07-04T04:39:53;21.00;99.90
20102;DHT22;10210;52.284;9.892;2022-07-04T04:42:19;21.00;99.90
20102;DHT22;10210;52.284;9.892;2022-07-04T04:44:45;21.00;99.90
20102;DHT22;10210;52.284;9.892;2022-07-04T04:47:10;21.00;99.90
20102;DHT22;10210;52.284;9.892;2022-07-04T04:49:36;21.10;99.90
20102;DHT22;10210;52.284;9.892;2022-07-04T04:52:02;21.10;99.90
20102;DHT22;10210;52.284;9.892;2022-07-04T04:54:28;21.10;99.90
20102;DHT22;10210;52.284;9.892;2022-07-04T04:56:53;21.10;99.90
20102;DHT22;10210;52.284;9.892;2022-07-04T04:59:19;21.10;99.90
20102;DHT22;10210;52.284;9.892;2022-07-04T05:01:45;21.10;99.90
20102;DHT22;10210;52.284;9.892;2022-07-04T05:04:10;21.10;99.90
20102;DHT22;10210;52.284;9.892;2022-07-04T05:06:36;21.10;99.90
20102;DHT22;10210;52.284;9.892;2022-07-04T05:09:02;21.10;99.90
20102;DHT22;10210;52.284;9.892;2022-07-04T05:11:28;21.10;99.90
20102;DHT22;10210;52.284;9.892;2022-07-04T05:13:53;21.10;99.90
20102;DHT22;10210;52.284;9.892;2022-07-04T05:16:19;21.10;99.90
20102;DHT22;10210;52.284;9.892;2022-07-04T05:18:45;21.10;99.90
20102;DHT22;10210;52.284;9.892;2022-07-04T05:21:10;21.10;99.90
20102;DHT22;10210;52.284;9.892;2022-07-04T05:23:36;21.10;99.90
20102;DHT22;10210;52.284;9.892;2022-07-04T05:26:01;21.10;99.90
20102;DHT22;10210;52.284;9.892;2022-07-04T05:28:27;21.10;99.90
20102;DHT22;10210;52.284;9.892;2022-07-04T05:30:53;21.20;99.90
20102;DHT22;10210;52.284;9.892;2022-07-04T05:33:18;21.20;99.90
20102;DHT22;10210;52.284;9.892;2022-07-04T05:35:44;21.20;99.90
20102;DHT22;10210;52.284;9.892;2022-07-04T05:38:10;21.20;99.90
20102;DHT22;10210;52.284;9.892;2022-07-04T05:40:35;21.30;99.90
20102;DHT22;10210;52.284;9.892;2022-07-04T05:43:01;21.30;99.90
20102;DHT22;10210;52.284;9.892;2022-07-04T05:45:27;21.30;99.90
20102;DHT22;10210;52.284;9.892;2022-07-04T05:47:52;21.30;99.90
20102;DHT22;10210;52.284;9.892;2022-07-04T05:50:18;21.30;99.90
20102;DHT22;10210;52.284;9.892;2022-07-04T05:52:44;21.30;99.90
20102;DHT22;10210;52.284;9.892;2022-07-04T05:55:09;21.40;99.90
20102;DHT22;10210;52.284;9.892;2022-07-04T05:57:35;21.40;99.90
20102;DHT22;10210;52.284;9.892;2022-07-04T06:00:02;21.40;99.90
20102;DHT22;10210;52.284;9.892;2022-07-04T06:02:28;21.50;99.90
20102;DHT22;10210;52.284;9.892;2022-07-04T06:04:54;21.50;99.90
20102;DHT22;10210;52.284;9.892;2022-07-04T06:07:20;21.50;99.90
20102;DHT22;10210;52.284;9.892;2022-07-04T06:09:45;21.50;99.90
20102;DHT22;10210;52.284;9.892;2022-07-04T06:12:11;21.50;99.90
20102;DHT22;10210;52.284;9.892;2022-07-04T06:14:37;21.50;99.90
20102;DHT22;10210;52.284;9.892;2022-07-04T06:17:03;21.50;99.90
20102;DHT22;10210;52.284;9.892;2022-07-04T06:19:28;21.50;99.90
20102;DHT22;10210;52.284;9.892;2022-07-04T06:21:54;21.50;99.90
20102;DHT22;10210;52.284;9.892;2022-07-04T06:24:20;21.50;99.90
20102;DHT22;10210;52.284;9.892;2022-07-04T06:26:45;21.50;99.90
20102;DHT22;10210;52.284;9.892;2022-07-04T06:29:11;21.50;99.90
20102;DHT22;10210;52.284;9.892;2022-07-04T06:31:37;21.50;99.90
20102;DHT22;10210;52.284;9.892;2022-07-04T06:34:03;21.60;99.90
20102;DHT22;10210;52.284;9.892;2022-07-04T06:36:47;21.60;99.90
20102;DHT22;10210;52.284;9.892;2022-07-04T06:39:13;21.60;99.90
20102;DHT22;10210;52.284;9.892;2022-07-04T06:41:38;21.60;99.90
20102;DHT22;10210;52.284;9.892;2022-07-04T06:44:04;21.70;99.90
20102;DHT22;10210;52.284;9.892;2022-07-04T06:46:30;21.70;99.90
20102;DHT22;10210;52.284;9.892;2022-07-04T06:48:56;21.70;99.90
20102;DHT22;10210;52.284;9.892;2022-07-04T06:51:22;21.80;99.90
20102;DHT22;10210;52.284;9.892;2022-07-04T06:53:48;21.80;99.90
20102;DHT22;10210;52.284;9.892;2022-07-04T06:56:14;21.80;99.90
20102;DHT22;10210;52.284;9.892;2022-07-04T06:58:40;21.90;99.90
20102;DHT22;10210;52.284;9.892;2022-07-04T07:01:06;21.90;99.90
20102;DHT22;10210;52.284;9.892;2022-07-04T07:03:32;22.00;99.90
20102;DHT22;10210;52.284;9.892;2022-07-04T07:05:57;22.10;99.90
20102;DHT22;10210;52.284;9.892;2022-07-04T07:08:23;22.30;99.90
20102;DHT22;10210;52.284;9.892;2022-07-04T07:10:49;22.50;99.90
20102;DHT22;10210;52.284;9.892;2022-07-04T07:13:15;22.90;99.90
20102;DHT22;10210;52.284;9.892;2022-07-04T07:15:42;23.30;99.90
20102;DHT22;10210;52.284;9.892;2022-07-04T07:18:08;23.70;99.90
20102;DHT22;10210;52.284;9.892;2022-07-04T07:20:34;24.10;99.90
20102;DHT22;10210;52.284;9.892;2022-07-04T07:23:03;24.50;99.90
20102;DHT22;10210;52.284;9.892;2022-07-04T07:25:30;24.70;99.90
20102;DHT22;10210;52.284;9.892;2022-07-04T07:27:56;24.90;99.90
20102;DHT22;10210;52.284;9.892;2022-07-04T07:30:22;25.00;99.90
20102;DHT22;10210;52.284;9.892;2022-07-04T07:32:48;25.10;99.90
20102;DHT22;10210;52.284;9.892;2022-07-04T07:35:14;25.30;99.90
20102;DHT22;10210;52.284;9.892;2022-07-04T07:37:40;25.50;99.90
20102;DHT22;10210;52.284;9.892;2022-07-04T07:40:07;25.50;99.70
20102;DHT22;10210;52.284;9.892;2022-07-04T07:42:33;25.60;99.40
20102;DHT22;10210;52.284;9.892;2022-07-04T07:44:59;25.70;99.90
20102;DHT22;10210;52.284;9.892;2022-07-04T07:47:25;25.90;99.50
20102;DHT22;10210;52.284;9.892;2022-07-04T07:49:50;26.10;99.10
20102;DHT22;10210;52.284;9.892;2022-07-04T07:52:16;26.30;97.70
20102;DHT22;10210;52.284;9.892;2022-07-04T07:54:43;26.50;97.70
20102;DHT22;10210;52.284;9.892;2022-07-04T07:57:08;26.50;97.40
20102;DHT22;10210;52.284;9.892;2022-07-04T07:59:34;26.70;97.40
20102;DHT22;10210;52.284;9.892;2022-07-04T08:02:00;26.90;97.40
20102;DHT22;10210;52.284;9.892;2022-07-04T08:04:25;27.10;96.60
20102;DHT22;10210;52.284;9.892;2022-07-04T08:07:09;27.10;96.00
20102;DHT22;10210;52.284;9.892;2022-07-04T08:09:38;27.30;95.00
20102;DHT22;10210;52.284;9.892;2022-07-04T08:12:05;27.40;94.90
20102;DHT22;10210;52.284;9.892;2022-07-04T08:14:33;27.60;95.50
20102;DHT22;10210;52.284;9.892;2022-07-04T08:16:59;27.80;94.50
20102;DHT22;10210;52.284;9.892;2022-07-04T08:19:25;28.00;94.00
20102;DHT22;10210;52.284;9.892;2022-07-04T08:21:54;28.10;93.90
20102;DHT22;10210;52.284;9.892;2022-07-04T08:24:20;28.10;93.10
20102;DHT22;10210;52.284;9.892;2022-07-04T08:26:47;28.20;93.60
20102;DHT22;10210;52.284;9.892;2022-07-04T08:29:13;28.30;93.20
20102;DHT22;10210;52.284;9.892;2022-07-04T08:31:39;28.30;92.90
20102;DHT22;10210;52.284;9.892;2022-07-04T08:34:05;28.30;92.20
20102;DHT22;10210;52.284;9.892;2022-07-04T08:36:30;28.20;91.90
20102;DHT22;10210;52.284;9.892;2022-07-04T08:38:56;28.10;91.90
20102;DHT22;10210;52.284;9.892;2022-07-04T08:41:22;27.90;92.00
20102;DHT22;10210;52.284;9.892;2022-07-04T08:43:48;27.80;92.10
20102;DHT22;10210;52.284;9.892;2022-07-04T08:46:16;27.80;91.80
20102;DHT22;10210;52.284;9.892;2022-07-04T08:48:51;27.80;91.30
20102;DHT22;10210;52.284;9.892;2022-07-04T08:51:46;27.70;90.60
20102;DHT22;10210;52.284;9.892;2022-07-04T08:54:18;27.50;90.90
20102;DHT22;10210;52.284;9.892;2022-07-04T08:57:03;27.40;91.60
20102;DHT22;10210;52.284;9.892;2022-07-04T08:59:49;27.30;91.00
20102;DHT22;10210;52.284;9.892;2022-07-04T09:02:16;27.30;90.70
20102;DHT22;10210;52.284;9.892;2022-07-04T09:04:44;27.20;90.20
20102;DHT22;10210;52.284;9.892;2022-07-04T09:07:13;27.10;90.00
20102;DHT22;10210;52.284;9.892;2022-07-04T09:09:40;27.00;90.20
20102;DHT22;10210;52.284;9.892;2022-07-04T09:12:10;27.00;90.50
20102;DHT22;10210;52.284;9.892;2022-07-04T09:14:37;27.00;90.70
20102;DHT22;10210;52.284;9.892;2022-07-04T09:17:04;27.10;91.10
20102;DHT22;10210;52.284;9.892;2022-07-04T09:19:31;27.20;90.90
20102;DHT22;10210;52.284;9.892;2022-07-04T09:22:02;27.40;91.00
20102;DHT22;10210;52.284;9.892;2022-07-04T09:24:50;27.60;91.20
20102;DHT22;10210;52.284;9.892;2022-07-04T09:27:39;27.80;89.80
20102;DHT22;10210;52.284;9.892;2022-07-04T09:30:08;28.00;88.90
20102;DHT22;10210;52.284;9.892;2022-07-04T09:32:39;28.10;88.40
20102;DHT22;10210;52.284;9.892;2022-07-04T09:35:09;28.20;89.10
20102;DHT22;10210;52.284;9.892;2022-07-04T09:37:43;28.30;88.50
20102;DHT22;10210;52.284;9.892;2022-07-04T09:42:48;28.40;85.80
20102;DHT22;10210;52.284;9.892;2022-07-04T09:45:16;28.50;85.50
20102;DHT22;10210;52.284;9.892;2022-07-04T09:47:45;28.50;85.00
20102;DHT22;10210;52.284;9.892;2022-07-04T09:50:19;28.60;85.20
20102;DHT22;10210;52.284;9.892;2022-07-04T09:55:36;28.70;85.00
20102;DHT22;10210;52.284;9.892;2022-07-04T10:00:35;28.60;83.60
20102;DHT22;10210;52.284;9.892;2022-07-04T10:03:26;28.60;83.80
20102;DHT22;10210;52.284;9.892;2022-07-04T10:06:06;28.50;83.50
20102;DHT22;10210;52.284;9.892;2022-07-04T10:08:33;28.60;82.50
20102;DHT22;10210;52.284;9.892;2022-07-04T10:11:01;28.60;81.50
20102;DHT22;10210;52.284;9.892;2022-07-04T10:13:28;28.70;81.80
20102;DHT22;10210;52.284;9.892;2022-07-04T10:15:53;28.70;81.70
20102;DHT22;10210;52.284;9.892;2022-07-04T10:18:22;28.70;81.00
20102;DHT22;10210;52.284;9.892;2022-07-04T10:20:50;28.70;80.10
20102;DHT22;10210;52.284;9.892;2022-07-04T10:23:19;28.60;79.60
20102;DHT22;10210;52.284;9.892;2022-07-04T10:25:50;28.50;78.90
20102;DHT22;10210;52.284;9.892;2022-07-04T10:28:18;28.40;79.20
20102;DHT22;10210;52.284;9.892;2022-07-04T10:30:49;28.40;78.60
20102;DHT22;10210;52.284;9.892;2022-07-04T10:33:28;28.40;78.80
20102;DHT22;10210;52.284;9.892;2022-07-04T10:35:56;28.30;78.30
20102;DHT22;10210;52.284;9.892;2022-07-04T10:38:33;28.40;78.90
20102;DHT22;10210;52.284;9.892;2022-07-04T10:41:11;28.40;79.10
20102;DHT22;10210;52.284;9.892;2022-07-04T10:43:50;28.50;79.60
20102;DHT22;10210;52.284;9.892;2022-07-04T10:46:25;28.50;79.90
20102;DHT22;10210;52.284;9.892;2022-07-04T10:48:56;28.50;79.70
20102;DHT22;10210;52.284;9.892;2022-07-04T10:56:57;28.60;78.80
20102;DHT22;10210;52.284;9.892;2022-07-04T10:59:37;28.40;78.40
20102;DHT22;10210;52.284;9.892;2022-07-04T11:17:50;28.40;78.30
20102;DHT22;10210;52.284;9.892;2022-07-04T11:20:21;28.50;79.10
20102;DHT22;10210;52.284;9.892;2022-07-04T11:22:49;28.50;77.50
20102;DHT22;10210;52.284;9.892;2022-07-04T11:25:15;28.60;77.60
20102;DHT22;10210;52.284;9.892;2022-07-04T11:27:41;28.60;77.10
20102;DHT22;10210;52.284;9.892;2022-07-04T11:30:09;28.60;77.50
20102;DHT22;10210;52.284;9.892;2022-07-04T11:32:38;28.70;77.70
20102;DHT22;10210;52.284;9.892;2022-07-04T11:35:04;28.80;77.10
20102;DHT22;10210;52.284;9.892;2022-07-04T11:37:32;28.80;77.20
20102;DHT22;10210;52.284;9.892;2022-07-04T11:39:58;28.90;77.50
20102;DHT22;10210;52.284;9.892;2022-07-04T11:43:05;28.90;77.30
20102;DHT22;10210;52.284;9.892;2022-07-04T11:45:51;29.10;76.60
20102;DHT22;10210;52.284;9.892;2022-07-04T11:48:25;29.10;75.80
20102;DHT22;10210;52.284;9.892;2022-07-04T11:50:52;29.10;75.50
20102;DHT22;10210;52.284;9.892;2022-07-04T11:53:19;29.10;74.50
20102;DHT22;10210;52.284;9.892;2022-07-04T11:55:56;29.10;74.50
20102;DHT22;10210;52.284;9.892;2022-07-04T11:58:23;29.10;75.30
20102;DHT22;10210;52.284;9.892;2022-07-04T12:00:49;29.10;75.10
20102;DHT22;10210;52.284;9.892;2022-07-04T12:03:15;29.10;75.60
20102;DHT22;10210;52.284;9.892;2022-07-04T12:05:41;29.10;76.10
20102;DHT22;10210;52.284;9.892;2022-07-04T12:08:09;29.20;75.40
20102;DHT22;10210;52.284;9.892;2022-07-04T12:10:36;29.30;75.00
20102;DHT22;10210;52.284;9.892;2022-07-04T12:13:04;29.30;74.90
20102;DHT22;10210;52.284;9.892;2022-07-04T12:15:42;29.30;74.40
20102;DHT22;10210;52.284;9.892;2022-07-04T12:18:26;29.40;74.20
20102;DHT22;10210;52.284;9.892;2022-07-04T12:20:54;29.50;74.30
20102;DHT22;10210;52.284;9.892;2022-07-04T12:23:35;29.50;74.70
20102;DHT22;10210;52.284;9.892;2022-07-04T12:26:01;29.60;74.40
20102;DHT22;10210;52.284;9.892;2022-07-04T12:28:35;29.60;74.40
20102;DHT22;10210;52.284;9.892;2022-07-04T12:31:02;29.60;73.70
20102;DHT22;10210;52.284;9.892;2022-07-04T12:33:29;29.60;73.20
20102;DHT22;10210;52.284;9.892;2022-07-04T12:36:05;29.70;73.20
20102;DHT22;10210;52.284;9.892;2022-07-04T12:38:38;29.70;73.00
20102;DHT22;10210;52.284;9.892;2022-07-04T12:41:13;29.60;72.90
20102;DHT22;10210;52.284;9.892;2022-07-04T12:43:46;29.60;73.70
20102;DHT22;10210;52.284;9.892;2022-07-04T12:48:50;29.50;72.10
20102;DHT22;10210;52.284;9.892;2022-07-04T12:51:22;29.40;72.70
20102;DHT22;10210;52.284;9.892;2022-07-04T12:53:52;29.40;73.00
20102;DHT22;10210;52.284;9.892;2022-07-04T12:56:29;29.40;73.70
20102;DHT22;10210;52.284;9.892;2022-07-04T12:59:03;29.40;73.70
20102;DHT22;10210;52.284;9.892;2022-07-04T13:01:31;29.50;74.00
20102;DHT22;10210;52.284;9.892;2022-07-04T13:03:58;29.60;73.60
20102;DHT22;10210;52.284;9.892;2022-07-04T13:06:24;29.70;73.60
20102;DHT22;10210;52.284;9.892;2022-07-04T13:08:50;29.60;73.20
20102;DHT22;10210;52.284;9.892;2022-07-04T13:11:16;29.70;73.20
20102;DHT22;10210;52.284;9.892;2022-07-04T13:14:00;29.70;73.80
20102;DHT22;10210;52.284;9.892;2022-07-04T13:16:26;29.70;74.00
20102;DHT22;10210;52.284;9.892;2022-07-04T13:18:52;29.60;73.90
20102;DHT22;10210;52.284;9.892;2022-07-04T13:21:17;29.60;74.40
20102;DHT22;10210;52.284;9.892;2022-07-04T13:23:43;29.70;73.50
20102;DHT22;10210;52.284;9.892;2022-07-04T13:26:09;29.70;73.20
20102;DHT22;10210;52.284;9.892;2022-07-04T13:28:35;29.70;73.00
20102;DHT22;10210;52.284;9.892;2022-07-04T13:31:01;29.70;72.90
20102;DHT22;10210;52.284;9.892;2022-07-04T13:33:27;29.80;73.10
20102;DHT22;10210;52.284;9.892;2022-07-04T13:35:53;29.80;73.40
20102;DHT22;10210;52.284;9.892;2022-07-04T13:38:19;29.80;73.20
20102;DHT22;10210;52.284;9.892;2022-07-04T13:40:45;29.80;73.10
20102;DHT22;10210;52.284;9.892;2022-07-04T13:43:11;29.80;73.40
20102;DHT22;10210;52.284;9.892;2022-07-04T13:45:41;29.70;73.40
20102;DHT22;10210;52.284;9.892;2022-07-04T13:48:12;29.70;73.10
20102;DHT22;10210;52.284;9.892;2022-07-04T13:50:37;29.60;73.00
20102;DHT22;10210;52.284;9.892;2022-07-04T13:53:08;29.60;72.90
20102;DHT22;10210;52.284;9.892;2022-07-04T13:55:35;29.50;73.40
20102;DHT22;10210;52.284;9.892;2022-07-04T13:58:08;29.50;73.30
20102;DHT22;10210;52.284;9.892;2022-07-04T14:00:34;29.50;73.10
20102;DHT22;10210;52.284;9.892;2022-07-04T14:03:01;29.50;73.40
20102;DHT22;10210;52.284;9.892;2022-07-04T14:05:27;29.50;73.20
20102;DHT22;10210;52.284;9.892;2022-07-04T14:07:53;29.50;72.80
20102;DHT22;10210;52.284;9.892;2022-07-04T14:10:19;29.50;73.00
20102;DHT22;10210;52.284;9.892;2022-07-04T14:12:45;29.50;72.10
20102;DHT22;10210;52.284;9.892;2022-07-04T14:15:11;29.50;72.30
20102;DHT22;10210;52.284;9.892;2022-07-04T14:17:38;29.50;72.50
20102;DHT22;10210;52.284;9.892;2022-07-04T14:20:05;29.60;71.30
20102;DHT22;10210;52.284;9.892;2022-07-04T14:22:34;29.70;70.80
20102;DHT22;10210;52.284;9.892;2022-07-04T14:25:00;29.70;70.40
20102;DHT22;10210;52.284;9.892;2022-07-04T14:27:26;29.80;70.10
20102;DHT22;10210;52.284;9.892;2022-07-04T14:29:51;29.90;69.80
20102;DHT22;10210;52.284;9.892;2022-07-04T14:32:17;29.90;69.20
20102;DHT22;10210;52.284;9.892;2022-07-04T14:34:43;29.90;69.60
20102;DHT22;10210;52.284;9.892;2022-07-04T14:37:09;30.00;69.80
20102;DHT22;10210;52.284;9.892;2022-07-04T14:39:35;30.00;69.60
20102;DHT22;10210;52.284;9.892;2022-07-04T14:42:01;30.10;69.60
20102;DHT22;10210;52.284;9.892;2022-07-04T14:44:27;30.10;69.60
20102;DHT22;10210;52.284;9.892;2022-07-04T14:46:52;30.10;69.10
20102;DHT22;10210;52.284;9.892;2022-07-04T14:49:19;30.10;69.20
20102;DHT22;10210;52.284;9.892;2022-07-04T14:51:44;30.00;69.20
20102;DHT22;10210;52.284;9.892;2022-07-04T14:54:10;30.00;69.60
20102;DHT22;10210;52.284;9.892;2022-07-04T14:56:36;30.00;69.80
20102;DHT22;10210;52.284;9.892;2022-07-04T14:59:03;30.10;70.40
20102;DHT22;10210;52.284;9.892;2022-07-04T15:01:29;30.10;70.00
20102;DHT22;10210;52.284;9.892;2022-07-04T15:03:55;30.20;70.30
20102;DHT22;10210;52.284;9.892;2022-07-04T15:06:21;30.30;70.30
20102;DHT22;10210;52.284;9.892;2022-07-04T15:08:47;30.40;70.00
20102;DHT22;10210;52.284;9.892;2022-07-04T15:11:13;30.40;70.10
20102;DHT22;10210;52.284;9.892;2022-07-04T15:13:39;30.40;70.10
20102;DHT22;10210;52.284;9.892;2022-07-04T15:16:05;30.40;69.70
20102;DHT22;10210;52.284;9.892;2022-07-04T15:18:31;30.30;69.40
20102;DHT22;10210;52.284;9.892;2022-07-04T15:20:57;30.30;69.20
20102;DHT22;10210;52.284;9.892;2022-07-04T15:23:41;30.20;68.90
20102;DHT22;10210;52.284;9.892;2022-07-04T15:26:25;30.10;68.60
20102;DHT22;10210;52.284;9.892;2022-07-04T15:28:51;30.10;68.80
20102;DHT22;10210;52.284;9.892;2022-07-04T15:31:17;30.00;69.00
20102;DHT22;10210;52.284;9.892;2022-07-04T15:33:43;29.90;68.90
20102;DHT22;10210;52.284;9.892;2022-07-04T15:36:09;29.80;68.80
20102;DHT22;10210;52.284;9.892;2022-07-04T15:38:35;29.80;69.10
20102;DHT22;10210;52.284;9.892;2022-07-04T15:41:00;29.80;69.50
20102;DHT22;10210;52.284;9.892;2022-07-04T15:43:28;29.90;69.60
20102;DHT22;10210;52.284;9.892;2022-07-04T15:45:55;30.00;69.90
20102;DHT22;10210;52.284;9.892;2022-07-04T15:48:21;30.00;69.90
20102;DHT22;10210;52.284;9.892;2022-07-04T15:50:47;30.10;68.90
20102;DHT22;10210;52.284;9.892;2022-07-04T15:53:13;30.20;68.90
20102;DHT22;10210;52.284;9.892;2022-07-04T15:55:38;30.30;68.20
20102;DHT22;10210;52.284;9.892;2022-07-04T15:58:04;30.30;68.00
20102;DHT22;10210;52.284;9.892;2022-07-04T16:00:30;30.30;68.40
20102;DHT22;10210;52.284;9.892;2022-07-04T16:02:56;30.30;68.20
20102;DHT22;10210;52.284;9.892;2022-07-04T16:05:22;30.30;68.30